createdAt,value
2022-11-02T00:02:10.149Z,13.75
2022-11-02T00:04:37.039Z,13.88
2022-11-02T00:07:03.893Z,15.82
2022-11-02T00:09:30.774Z,15.68
2022-11-02T00:11:57.647Z,16.75
2022-11-02T00:14:24.598Z,18.13
2022-11-02T00:16:51.852Z,17.88
2022-11-02T00:19:18.856Z,16.75
2022-11-02T00:21:46.214Z,18.73
2022-11-02T00:24:13.412Z,18.13
2022-11-02T00:26:40.266Z,19.45
2022-11-02T00:29:08.452Z,20.08
2022-11-02T00:31:35.299Z,19.67
2022-11-02T00:34:02.193Z,19.90
2022-11-02T00:36:29.253Z,20.40
2022-11-02T00:38:56.145Z,21.80
2022-11-02T00:41:23.038Z,20.60
2022-11-02T00:43:49.876Z,21.73
2022-11-02T00:46:16.764Z,22.67
2022-11-02T00:48:43.608Z,23.23
2022-11-02T00:51:10.512Z,23.25
2022-11-02T00:53:37.374Z,22.00
2022-11-02T00:56:04.475Z,22.13
2022-11-02T00:58:31.348Z,22.15
2022-11-02T01:00:58.292Z,22.63
2022-11-02T01:03:25.232Z,22.73
2022-11-02T01:05:52.072Z,22.50
2022-11-02T01:08:18.977Z,23.98
2022-11-02T01:10:48.288Z,22.20
2022-11-02T01:13:15.679Z,22.13
2022-11-02T01:15:43.254Z,23.60
2022-11-02T01:18:10.100Z,22.20
2022-11-02T01:20:37.016Z,22.85
2022-11-02T01:23:04.000Z,22.50
2022-11-02T01:25:30.892Z,22.27
2022-11-02T01:27:57.781Z,22.95
2022-11-02T01:30:24.679Z,22.73
2022-11-02T01:32:51.539Z,24.17
2022-11-02T01:35:18.498Z,24.70
2022-11-02T01:37:45.458Z,21.92
2022-11-02T01:40:12.602Z,22.58
2022-11-02T01:42:39.489Z,22.42
2022-11-02T01:45:06.966Z,23.13
2022-11-02T01:47:39.317Z,23.98
2022-11-02T01:50:13.669Z,21.08
2022-11-02T01:55:29.432Z,21.27
2022-11-02T01:58:00.618Z,21.85
2022-11-02T02:00:27.685Z,22.20
2022-11-02T02:03:07.827Z,23.80
2022-11-02T02:05:40.373Z,21.73
2022-11-02T02:08:10.988Z,23.50
2022-11-02T02:10:38.075Z,23.75
2022-11-02T02:13:07.064Z,24.38
2022-11-02T02:15:55.485Z,24.35
2022-11-02T02:18:43.074Z,25.50
2022-11-02T02:21:38.866Z,23.00
2022-11-02T02:24:33.466Z,23.88
2022-11-02T02:27:00.362Z,24.52
2022-11-02T02:29:59.301Z,25.17
2022-11-02T02:32:37.705Z,24.90
2022-11-02T02:35:27.274Z,24.85
2022-11-02T02:38:03.862Z,24.88
2022-11-02T02:40:34.856Z,24.65
2022-11-02T02:43:15.733Z,25.35
2022-11-02T02:45:56.197Z,24.63
2022-11-02T02:48:25.645Z,26.60
2022-11-02T02:51:01.439Z,23.63
2022-11-02T02:53:34.281Z,26.27
2022-11-02T02:56:02.433Z,24.08
2022-11-02T02:58:38.235Z,23.98
2022-11-02T03:01:06.288Z,24.65
2022-11-02T03:03:34.869Z,26.08
2022-11-02T03:06:04.323Z,24.65
2022-11-02T03:08:32.016Z,26.67
2022-11-02T03:11:17.060Z,26.50
2022-11-02T03:14:11.047Z,26.70
2022-11-02T03:17:08.108Z,26.75
2022-11-02T03:19:42.575Z,26.27
2022-11-02T03:25:04.564Z,27.33
2022-11-02T03:27:51.930Z,24.85
2022-11-02T03:30:21.583Z,27.25
2022-11-02T03:33:07.215Z,27.77
2022-11-02T03:35:40.712Z,28.50
2022-11-02T03:38:21.433Z,28.87
2022-11-02T03:40:50.944Z,31.90
2022-11-02T03:43:20.481Z,30.40
2022-11-02T03:45:55.976Z,28.80
2022-11-02T03:48:27.364Z,29.05
2022-11-02T03:50:55.678Z,30.73
2022-11-02T03:53:22.763Z,29.17
2022-11-02T03:55:58.521Z,27.48
2022-11-02T03:58:25.429Z,29.23
2022-11-02T04:00:57.844Z,27.27
2022-11-02T04:03:25.563Z,28.73
2022-11-02T04:05:52.448Z,27.45
2022-11-02T04:08:40.774Z,28.17
2022-11-02T04:11:26.491Z,26.80
2022-11-02T04:14:11.879Z,26.92
2022-11-02T04:16:39.105Z,27.38
2022-11-02T04:19:24.460Z,27.55
2022-11-02T04:22:09.974Z,27.63
2022-11-02T04:24:55.379Z,27.63
2022-11-02T04:27:22.252Z,26.23
2022-11-02T04:29:49.564Z,27.08
2022-11-02T04:32:36.918Z,24.50
2022-11-02T04:35:04.740Z,26.88
2022-11-02T04:37:50.028Z,26.20
2022-11-02T04:40:17.750Z,27.20
2022-11-02T04:42:47.189Z,25.88
2022-11-02T04:45:14.094Z,24.80
2022-11-02T04:47:40.969Z,25.42
2022-11-02T04:50:08.160Z,27.17
2022-11-02T04:52:35.076Z,26.73
2022-11-02T04:55:02.018Z,26.35
2022-11-02T04:57:28.939Z,24.77
2022-11-02T04:59:55.835Z,26.70
2022-11-02T05:02:22.884Z,25.83
2022-11-02T05:04:49.838Z,26.60
2022-11-02T05:07:19.532Z,26.95
2022-11-02T05:09:46.443Z,26.45
2022-11-02T05:12:13.369Z,28.17
2022-11-02T05:14:40.707Z,24.73
2022-11-02T05:17:07.607Z,26.35
2022-11-02T05:19:34.477Z,26.10
2022-11-02T05:22:01.421Z,27.67
2022-11-02T05:24:28.404Z,26.50
2022-11-02T05:26:55.306Z,25.75
2022-11-02T05:29:22.180Z,27.83
2022-11-02T05:31:49.073Z,28.17
2022-11-02T05:34:15.927Z,27.02
2022-11-02T05:36:42.917Z,27.13
2022-11-02T05:39:09.865Z,26.88
2022-11-02T05:41:36.745Z,24.70
2022-11-02T05:44:03.629Z,24.58
2022-11-02T05:46:30.597Z,25.15
2022-11-02T05:48:57.477Z,23.67
2022-11-02T05:51:24.370Z,25.67
2022-11-02T05:53:51.415Z,25.15
2022-11-02T05:56:23.675Z,24.15
2022-11-02T06:01:24.405Z,24.77
2022-11-02T06:03:53.633Z,25.27
2022-11-02T06:06:21.017Z,25.98
2022-11-02T06:08:47.941Z,26.42
2022-11-02T06:11:15.481Z,26.48
2022-11-02T06:13:42.631Z,24.67
2022-11-02T06:16:11.457Z,26.67
2022-11-02T06:18:39.473Z,24.95
2022-11-02T06:21:06.588Z,25.05
2022-11-02T06:23:34.032Z,24.48
2022-11-02T06:26:01.723Z,24.20
2022-11-02T06:28:29.820Z,24.33
2022-11-02T06:30:57.351Z,23.60
2022-11-02T06:33:24.574Z,24.30
2022-11-02T06:35:53.421Z,21.95
2022-11-02T06:38:20.848Z,22.25
2022-11-02T06:40:58.483Z,22.52
2022-11-02T06:43:26.359Z,21.67
2022-11-02T06:45:57.985Z,21.00
2022-11-02T06:48:29.816Z,22.23
2022-11-02T06:51:01.727Z,23.50
2022-11-02T06:53:28.732Z,21.77
2022-11-02T06:55:57.456Z,23.70
2022-11-02T06:58:26.410Z,22.63
2022-11-02T07:04:41.342Z,19.85
2022-11-02T07:07:08.231Z,20.83
2022-11-02T07:09:35.168Z,20.23
2022-11-02T07:12:02.174Z,21.10
2022-11-02T07:14:29.079Z,21.02
2022-11-02T07:16:56.748Z,19.63
2022-11-02T07:19:23.682Z,18.20
2022-11-02T07:21:50.534Z,17.85
2022-11-02T07:24:17.430Z,17.60
2022-11-02T07:26:44.590Z,17.70
2022-11-02T07:29:11.496Z,16.85
2022-11-02T07:31:38.481Z,16.67
2022-11-02T07:34:05.359Z,16.77
2022-11-02T07:40:20.006Z,15.65
2022-11-02T07:42:47.006Z,15.10
2022-11-02T07:45:14.164Z,15.25
2022-11-02T07:47:48.219Z,15.07
2022-11-02T07:50:17.826Z,16.92
2022-11-02T07:56:31.908Z,13.90
2022-11-02T07:58:58.846Z,13.85
2022-11-02T08:01:25.826Z,13.20
2022-11-02T08:03:53.062Z,13.07
2022-11-02T08:06:20.009Z,12.38
2022-11-02T08:08:46.915Z,11.73
2022-11-02T08:11:13.845Z,13.18
2022-11-02T08:13:40.732Z,11.85
2022-11-02T08:16:07.922Z,11.27
2022-11-02T08:18:34.825Z,11.88
2022-11-02T08:21:01.806Z,10.35
2022-11-02T08:23:28.685Z,11.13
2022-11-02T08:25:59.270Z,11.23
2022-11-02T08:28:28.657Z,12.20
2022-11-02T08:30:55.734Z,11.18
2022-11-02T08:33:22.618Z,11.15
2022-11-02T08:35:49.779Z,12.48
2022-11-02T08:38:17.584Z,12.18
2022-11-02T08:40:45.082Z,12.90
2022-11-02T08:43:13.845Z,13.38
2022-11-02T08:46:13.402Z,13.43
2022-11-02T08:48:30.636Z,13.73
2022-11-02T08:50:57.681Z,14.30
2022-11-02T08:53:24.627Z,14.23
2022-11-02T08:55:51.511Z,22.98
2022-11-02T08:58:18.654Z,20.88
2022-11-02T09:00:45.813Z,18.15
2022-11-02T09:03:15.527Z,14.98
2022-11-02T09:05:44.657Z,13.45
2022-11-02T09:08:19.684Z,13.13
2022-11-02T09:10:50.651Z,11.60
2022-11-02T09:13:20.936Z,13.20
2022-11-02T09:15:51.493Z,11.43
2022-11-02T09:18:18.452Z,11.65
2022-11-02T09:20:46.588Z,10.23
2022-11-02T09:23:13.525Z,10.70
2022-11-02T09:25:40.386Z,8.48
2022-11-02T09:28:07.785Z,9.10
2022-11-02T09:30:35.090Z,8.05
2022-11-02T09:33:06.945Z,8.85
2022-11-02T09:35:36.678Z,8.25
2022-11-02T09:38:03.971Z,7.88
2022-11-02T09:40:40.079Z,7.18
2022-11-02T09:43:32.678Z,6.90
2022-11-02T09:46:40.410Z,7.05
2022-11-02T09:49:22.463Z,5.75
2022-11-02T09:51:56.107Z,5.05
2022-11-02T09:54:46.094Z,6.18
2022-11-02T09:57:29.401Z,5.63
2022-11-02T09:59:57.006Z,5.38
2022-11-02T10:02:43.046Z,6.68
2022-11-02T10:05:30.385Z,5.25
2022-11-02T10:08:25.123Z,5.90
2022-11-02T10:11:08.250Z,6.00
2022-11-02T10:13:35.422Z,5.53
2022-11-02T10:16:19.726Z,5.03
2022-11-02T10:18:50.118Z,5.20
2022-11-02T10:21:22.003Z,4.57
2022-11-02T10:23:54.017Z,4.30
2022-11-02T10:26:34.614Z,5.25
2022-11-02T10:29:27.576Z,4.35
2022-11-02T10:31:54.450Z,4.50
2022-11-02T10:34:27.321Z,4.07
2022-11-02T10:37:09.413Z,3.60
2022-11-02T10:39:42.865Z,3.40
2022-11-02T10:42:43.847Z,4.40
2022-11-02T10:45:25.949Z,3.70
2022-11-02T10:47:59.199Z,3.45
2022-11-02T10:50:41.459Z,2.88
2022-11-02T10:53:39.360Z,4.35
2022-11-02T11:00:25.374Z,3.78
2022-11-02T11:03:05.825Z,3.28
2022-11-02T11:05:36.238Z,5.65
2022-11-02T11:08:04.586Z,4.75
2022-11-02T11:10:38.248Z,3.75
2022-11-02T11:13:07.775Z,3.30
2022-11-02T11:15:50.678Z,3.80
2022-11-02T11:21:08.849Z,5.20
2022-11-02T11:23:35.839Z,3.65
2022-11-02T11:26:05.729Z,3.85
2022-11-02T11:32:30.590Z,5.07
2022-11-02T11:35:02.254Z,5.18
2022-11-02T11:37:29.695Z,5.38
2022-11-02T11:40:05.145Z,5.95
2022-11-02T11:42:35.420Z,6.22
2022-11-02T11:45:06.940Z,6.75
2022-11-02T11:47:40.052Z,8.10
2022-11-02T11:50:21.796Z,7.50
2022-11-02T11:53:18.188Z,8.50
2022-11-02T11:55:53.450Z,8.60
2022-11-02T11:58:25.450Z,10.23
2022-11-02T12:01:10.795Z,10.25
2022-11-02T12:04:00.501Z,10.18
2022-11-02T12:06:36.167Z,9.07
2022-11-02T12:09:34.108Z,9.50
2022-11-02T12:12:25.848Z,8.80
2022-11-02T12:15:11.486Z,11.05
2022-11-02T12:17:47.518Z,10.05
2022-11-02T12:20:17.664Z,10.13
2022-11-02T12:23:13.680Z,9.35
2022-11-02T12:26:05.004Z,8.85
2022-11-02T12:28:55.724Z,9.50
2022-11-02T12:32:00.761Z,9.20
2022-11-02T12:37:54.534Z,8.02
2022-11-02T12:40:39.367Z,9.00
2022-11-02T12:43:27.573Z,9.48
2022-11-02T12:46:04.388Z,8.77
2022-11-02T12:49:17.629Z,9.30
2022-11-02T12:51:52.125Z,9.50
2022-11-02T12:54:27.578Z,8.65
2022-11-02T12:56:55.382Z,7.95
2022-11-02T12:59:26.543Z,8.23
2022-11-02T13:02:18.084Z,8.82
2022-11-02T13:05:09.690Z,7.78
2022-11-02T13:07:48.759Z,8.13
2022-11-02T13:13:59.188Z,8.40
2022-11-02T13:16:51.559Z,6.93
2022-11-02T13:19:34.729Z,7.00
2022-11-02T13:22:04.125Z,8.52
2022-11-02T13:24:37.046Z,7.50
2022-11-02T13:27:21.705Z,6.97
2022-11-02T13:29:58.500Z,7.35
2022-11-02T13:32:54.681Z,7.78
2022-11-02T13:35:36.228Z,7.30
2022-11-02T13:38:33.832Z,7.57
2022-11-02T13:41:19.188Z,8.35
2022-11-02T13:43:58.172Z,8.73
2022-11-02T13:47:00.614Z,8.18
2022-11-02T13:49:31.040Z,8.02
2022-11-02T13:52:04.115Z,8.00
2022-11-02T13:54:39.070Z,8.75
2022-11-02T13:57:06.121Z,7.55
2022-11-02T13:59:43.132Z,8.05
2022-11-02T14:02:16.732Z,7.72
2022-11-02T14:04:44.596Z,7.88
2022-11-02T14:07:40.490Z,8.05
2022-11-02T14:10:17.659Z,8.35
2022-11-02T14:12:49.244Z,7.22
2022-11-02T14:15:16.143Z,7.65
2022-11-02T14:17:55.352Z,7.85
2022-11-02T14:20:43.580Z,6.90
2022-11-02T14:23:10.753Z,7.70
2022-11-02T14:25:53.773Z,7.50
2022-11-02T14:28:25.726Z,7.20
2022-11-02T14:31:04.526Z,6.38
2022-11-02T14:33:56.299Z,7.15
2022-11-02T14:36:43.797Z,7.40
2022-11-02T14:39:55.683Z,7.85
2022-11-02T14:42:41.469Z,6.63
2022-11-02T14:45:26.018Z,6.88
2022-11-02T14:48:05.477Z,6.50
2022-11-02T14:50:33.145Z,6.70
2022-11-02T14:53:10.191Z,6.80
2022-11-02T14:55:39.142Z,6.80
2022-11-02T14:58:14.803Z,7.78
2022-11-02T15:00:47.944Z,7.70
2022-11-02T15:06:58.116Z,7.28
2022-11-02T15:09:54.613Z,6.88
2022-11-02T15:12:27.142Z,6.47
2022-11-02T15:15:19.447Z,6.50
2022-11-02T15:17:58.227Z,6.20
2022-11-02T15:20:34.657Z,6.65
2022-11-02T15:23:40.133Z,8.30
2022-11-02T15:26:11.535Z,7.28
2022-11-02T15:28:39.151Z,7.15
2022-11-02T15:31:15.135Z,7.78
2022-11-02T15:33:45.838Z,7.70
2022-11-02T15:36:22.047Z,7.68
2022-11-02T15:38:51.643Z,7.75
2022-11-02T15:41:50.672Z,7.15
2022-11-02T15:44:41.463Z,7.85
2022-11-02T15:47:20.427Z,8.75
2022-11-02T15:50:02.308Z,8.35
2022-11-02T15:53:22.282Z,9.30
2022-11-02T15:56:03.779Z,8.13
2022-11-02T15:58:39.734Z,7.38
2022-11-02T16:01:28.563Z,7.50
2022-11-02T16:04:02.066Z,8.18
2022-11-02T16:06:29.073Z,7.13
2022-11-02T16:08:59.651Z,7.20
2022-11-02T16:11:27.301Z,7.30
2022-11-02T16:14:13.482Z,7.18
2022-11-02T16:16:48.977Z,6.55
2022-11-02T16:19:22.452Z,7.10
2022-11-02T16:21:50.105Z,7.73
2022-11-02T16:24:18.294Z,6.68
2022-11-02T16:26:46.598Z,7.55
2022-11-02T16:29:26.734Z,7.13
2022-11-02T16:31:53.794Z,7.25
2022-11-02T16:34:29.979Z,6.95
2022-11-02T16:36:58.128Z,7.93
2022-11-02T16:39:30.426Z,8.00
2022-11-02T16:42:00.045Z,7.25
2022-11-02T16:44:32.386Z,7.60
2022-11-02T16:47:15.688Z,7.80
2022-11-02T16:50:03.557Z,7.25
2022-11-02T16:52:36.162Z,6.80
2022-11-02T16:55:23.234Z,6.38
2022-11-02T16:57:50.295Z,7.20
2022-11-02T17:00:20.097Z,6.72
2022-11-02T17:02:47.691Z,6.40
2022-11-02T17:05:16.541Z,6.25
2022-11-02T17:07:50.115Z,7.38
2022-11-02T17:10:24.171Z,7.03
2022-11-02T17:12:51.308Z,7.32
2022-11-02T17:15:24.313Z,7.53
2022-11-02T17:18:16.742Z,6.93
2022-11-02T17:20:43.694Z,6.95
2022-11-02T17:23:29.080Z,7.05
2022-11-02T17:26:15.871Z,8.70
2022-11-02T17:28:46.039Z,8.75
2022-11-02T17:31:34.701Z,9.55
2022-11-02T17:34:17.643Z,8.52
2022-11-02T17:36:46.277Z,8.18
2022-11-02T17:39:15.104Z,8.32
2022-11-02T17:42:07.627Z,8.20
2022-11-02T17:44:34.528Z,8.10
2022-11-02T17:47:01.611Z,8.35
2022-11-02T17:49:28.565Z,8.23
2022-11-02T17:51:55.483Z,7.63
2022-11-02T17:54:22.567Z,7.32
2022-11-02T18:04:36.276Z,9.57
2022-11-02T18:07:03.235Z,9.32
2022-11-02T18:09:30.384Z,10.65
2022-11-02T18:11:57.247Z,9.73
2022-11-02T18:14:24.171Z,9.95
2022-11-02T18:16:52.894Z,11.18
2022-11-02T18:19:19.865Z,10.25
2022-11-02T18:21:46.730Z,10.23
2022-11-02T18:28:02.286Z,10.23
2022-11-02T18:30:30.077Z,12.45
2022-11-02T18:32:57.481Z,10.98
2022-11-02T18:35:25.341Z,10.60
2022-11-02T18:37:52.451Z,12.35
2022-11-02T18:40:20.625Z,11.85
2022-11-02T18:42:47.737Z,11.52
2022-11-02T18:45:15.947Z,10.32
2022-11-02T18:47:43.474Z,10.02
2022-11-02T18:50:12.821Z,10.15
2022-11-02T18:52:40.345Z,10.07
2022-11-02T18:55:08.025Z,9.43
2022-11-02T18:57:35.263Z,9.68
2022-11-02T19:00:03.062Z,7.75
2022-11-02T19:02:30.350Z,8.82
2022-11-02T19:04:57.500Z,8.00
2022-11-02T19:07:42.787Z,7.65
2022-11-02T19:10:10.346Z,8.85
2022-11-02T19:12:37.799Z,7.00
2022-11-02T19:15:05.197Z,7.18
2022-11-02T19:17:32.143Z,6.63
2022-11-02T19:19:59.164Z,6.30
2022-11-02T19:22:26.872Z,7.45
2022-11-02T19:24:53.883Z,7.25
2022-11-02T19:27:25.420Z,7.40
2022-11-02T19:29:52.569Z,7.47
2022-11-02T19:32:19.918Z,6.40
2022-11-02T19:34:47.101Z,8.50
2022-11-02T19:37:14.148Z,6.90
2022-11-02T19:39:41.428Z,6.68
2022-11-02T19:42:08.465Z,7.28
2022-11-02T19:44:42.093Z,8.35
2022-11-02T19:47:10.195Z,6.15
2022-11-02T19:49:37.253Z,5.75
2022-11-02T19:52:04.514Z,7.35
2022-11-02T19:54:31.452Z,12.30
2022-11-02T19:56:58.429Z,10.00
2022-11-02T19:59:25.378Z,8.18
2022-11-02T20:01:52.556Z,7.78
2022-11-02T20:04:19.897Z,6.30
2022-11-02T20:06:46.829Z,6.88
2022-11-02T20:09:16.651Z,7.75
2022-11-02T20:15:31.052Z,7.65
2022-11-02T20:18:17.761Z,7.10
2022-11-02T20:20:44.935Z,7.28
2022-11-02T20:23:11.866Z,7.97
2022-11-02T20:25:38.845Z,7.75
2022-11-02T20:28:06.085Z,9.73
2022-11-02T20:30:33.410Z,8.02
2022-11-02T20:33:00.413Z,7.18
2022-11-02T20:35:27.346Z,6.75
2022-11-02T20:37:54.727Z,6.30
2022-11-02T20:40:22.579Z,6.65
2022-11-02T20:42:50.430Z,6.53
2022-11-02T20:45:18.455Z,6.70
2022-11-02T20:47:45.416Z,5.93
2022-11-02T20:50:16.447Z,6.05
2022-11-02T20:52:45.361Z,5.32
2022-11-02T20:55:12.302Z,7.28
2022-11-02T20:57:39.219Z,9.75
2022-11-02T21:00:06.803Z,7.40
2022-11-02T21:02:33.844Z,8.57
2022-11-02T21:05:00.940Z,8.85
2022-11-02T21:07:27.804Z,5.68
2022-11-02T21:09:54.851Z,5.22
2022-11-02T21:12:40.146Z,5.03
2022-11-02T21:15:07.778Z,4.75
2022-11-02T21:17:35.322Z,4.65
2022-11-02T21:20:28.397Z,4.80
2022-11-02T21:22:52.251Z,5.80
2022-11-02T21:25:19.191Z,4.05
2022-11-02T21:27:50.659Z,3.67
2022-11-02T21:30:18.528Z,3.78
2022-11-02T21:32:45.428Z,3.63
2022-11-02T21:35:12.308Z,3.78
2022-11-02T21:37:39.179Z,3.80
2022-11-02T21:40:06.698Z,3.30
2022-11-02T21:42:33.580Z,3.45
2022-11-02T21:45:00.562Z,3.80
2022-11-02T21:47:34.145Z,3.35
2022-11-02T21:50:11.347Z,3.07
2022-11-02T21:52:41.094Z,3.20
2022-11-02T21:55:11.650Z,3.30
2022-11-02T21:57:38.588Z,3.00
2022-11-02T22:00:06.013Z,2.90
2022-11-02T22:02:32.942Z,4.45
2022-11-02T22:04:59.880Z,3.15
2022-11-02T22:07:26.771Z,10.63
2022-11-02T22:09:53.806Z,6.38
2022-11-02T22:12:39.360Z,11.82
2022-11-02T22:15:06.981Z,9.07
2022-11-02T22:17:49.082Z,3.65
2022-11-02T22:20:17.266Z,2.80
2022-11-02T22:22:44.171Z,2.92
2022-11-02T22:25:11.049Z,2.90
2022-11-02T22:27:37.923Z,2.92
2022-11-02T22:30:05.407Z,3.67
2022-11-02T22:32:32.264Z,4.10
2022-11-02T22:34:59.146Z,3.13
2022-11-02T22:37:44.552Z,3.47
2022-11-02T22:40:11.581Z,3.03
2022-11-02T22:42:41.499Z,3.53
2022-11-02T22:45:10.226Z,3.35
2022-11-02T22:47:37.157Z,2.95
2022-11-02T22:50:04.430Z,3.60
2022-11-02T22:52:31.302Z,3.05
2022-11-02T22:54:58.157Z,2.97
2022-11-02T22:57:25.053Z,3.63
2022-11-02T22:59:51.976Z,3.35
2022-11-02T23:02:18.950Z,3.10
2022-11-02T23:04:45.821Z,2.40
2022-11-02T23:07:12.837Z,2.55
2022-11-02T23:09:39.833Z,3.45
2022-11-02T23:12:06.929Z,2.40
2022-11-02T23:14:33.779Z,3.08
2022-11-02T23:17:00.666Z,3.63
2022-11-02T23:19:30.306Z,3.03
2022-11-02T23:22:23.097Z,2.00
2022-11-02T23:25:10.417Z,2.45
2022-11-02T23:28:02.646Z,2.15
2022-11-02T23:30:50.717Z,2.17
2022-11-02T23:33:18.583Z,1.88
2022-11-02T23:36:04.083Z,2.80
2022-11-02T23:38:49.476Z,2.13
2022-11-02T23:41:17.742Z,4.00
2022-11-02T23:43:44.934Z,2.03
2022-11-02T23:46:11.869Z,3.67
2022-11-02T23:48:40.879Z,7.40
2022-11-02T23:51:27.124Z,4.80
2022-11-02T23:54:20.009Z,4.05
2022-11-02T23:56:47.003Z,3.15
2022-11-02T23:59:16.602Z,1.98
